createdAt,value
2023-04-18T00:08:10.596Z,75.33
2023-04-18T00:23:14.223Z,75.39
2023-04-18T00:38:16.234Z,78.28
2023-04-18T00:53:18.186Z,83.44
2023-04-18T01:08:21.896Z,80.46
2023-04-18T01:23:23.847Z,83.25
2023-04-18T01:38:25.846Z,87.33
2023-04-18T01:53:27.793Z,90.43
2023-04-18T02:08:31.012Z,86.27
2023-04-18T02:23:33.068Z,85.82
2023-04-18T02:38:35.010Z,86.42
2023-04-18T02:53:36.940Z,89.84
2023-04-18T03:08:38.912Z,92.17
2023-04-18T03:23:41.078Z,94.54
2023-04-18T03:38:43.246Z,95.40
2023-04-18T03:53:45.075Z,94.99
2023-04-18T04:08:46.969Z,95.78
2023-04-18T04:23:48.992Z,95.09
2023-04-18T04:38:52.570Z,96.62
2023-04-18T04:53:54.424Z,95.44
2023-04-18T05:08:57.663Z,95.43
2023-04-18T05:23:59.525Z,95.76
2023-04-18T05:39:01.692Z,94.46
2023-04-18T05:54:04.506Z,91.79
2023-04-18T06:09:06.454Z,87.62
2023-04-18T06:24:08.564Z,84.71
2023-04-18T06:39:10.494Z,85.13
2023-04-18T06:54:12.566Z,82.65
2023-04-18T07:09:14.668Z,82.85
2023-04-18T07:24:16.810Z,80.42
2023-04-18T07:39:18.802Z,76.54
2023-04-18T07:54:20.734Z,71.77
2023-04-18T08:09:22.632Z,69.74
2023-04-18T08:24:24.554Z,67.89
2023-04-18T08:39:26.444Z,64.40
2023-04-18T08:54:30.610Z,61.19
2023-04-18T09:09:50.234Z,59.29
2023-04-18T09:24:57.674Z,57.18
2023-04-18T09:39:59.577Z,56.72
2023-04-18T09:55:04.530Z,64.15
2023-04-18T10:10:07.125Z,65.54
2023-04-18T10:25:09.190Z,65.83
2023-04-18T10:40:11.341Z,64.57
2023-04-18T10:55:15.975Z,62.17
2023-04-18T11:10:24.029Z,60.48
2023-04-18T11:25:32.421Z,58.61
2023-04-18T11:40:35.837Z,56.62
2023-04-18T11:55:37.783Z,59.85
2023-04-18T12:10:51.192Z,71.72
2023-04-18T12:26:03.649Z,77.30
2023-04-18T12:41:05.770Z,74.06
2023-04-18T12:56:08.173Z,75.87
2023-04-18T13:11:09.991Z,75.27
2023-04-18T13:26:11.822Z,75.08
2023-04-18T13:41:13.918Z,73.85
2023-04-18T13:56:15.878Z,72.65
2023-04-18T14:11:17.866Z,71.57
2023-04-18T14:26:20.749Z,71.84
2023-04-18T14:41:22.732Z,72.58
2023-04-18T14:56:24.869Z,72.61
2023-04-18T15:11:27.478Z,71.78
2023-04-18T15:26:31.072Z,72.26
2023-04-18T15:41:36.345Z,71.79
2023-04-18T15:56:38.224Z,72.63
2023-04-18T16:11:40.124Z,72.97
2023-04-18T16:26:42.024Z,71.89
2023-04-18T16:41:43.871Z,72.45
2023-04-18T16:56:45.874Z,72.68
2023-04-18T17:11:47.818Z,72.47
2023-04-18T17:26:49.992Z,74.60
2023-04-18T17:41:51.916Z,76.55
2023-04-18T17:56:53.936Z,76.60
2023-04-18T18:11:56.209Z,76.94
2023-04-18T18:26:59.063Z,75.77
2023-04-18T18:42:01.169Z,76.03
2023-04-18T18:57:03.119Z,74.70
2023-04-18T19:12:05.832Z,74.87
2023-04-18T19:27:08.071Z,74.97
2023-04-18T19:42:10.489Z,73.03
2023-04-18T19:57:12.468Z,74.21
2023-04-18T20:12:14.563Z,75.95
2023-04-18T20:27:18.958Z,76.44
2023-04-18T20:42:21.217Z,76.82
2023-04-18T20:57:23.164Z,77.33
2023-04-18T21:12:25.014Z,77.26
2023-04-18T21:27:26.927Z,78.79
2023-04-18T21:42:28.885Z,77.04
2023-04-18T21:57:30.775Z,76.41
2023-04-18T22:12:32.919Z,74.95
2023-04-18T22:27:34.731Z,75.29
2023-04-18T22:42:38.052Z,77.05
2023-04-18T22:57:40.619Z,74.48
2023-04-18T23:12:42.487Z,71.88
2023-04-18T23:27:44.415Z,71.33
2023-04-18T23:42:47.294Z,70.23
2023-04-18T23:57:49.236Z,70.06
